sensor_id;sensor_type;location;lat;lon;timestamp;P1;durP1;ratioP1;P2;durP2;ratioP2
61003;SDS011;46889;37.310;13.582;2023-05-14T00:00:21;44.45;;;6.32;;
61003;SDS011;46889;37.310;13.582;2023-05-14T00:02:47;38.97;;;6.90;;
61003;SDS011;46889;37.310;13.582;2023-05-14T00:05:13;54.70;;;7.10;;
61003;SDS011;46889;37.310;13.582;2023-05-14T00:07:40;45.28;;;6.07;;
61003;SDS011;46889;37.310;13.582;2023-05-14T00:10:06;42.33;;;7.00;;
61003;SDS011;46889;37.310;13.582;2023-05-14T00:12:32;28.50;;;6.60;;
61003;SDS011;46889;37.310;13.582;2023-05-14T00:14:58;36.35;;;5.53;;
61003;SDS011;46889;37.310;13.582;2023-05-14T00:17:25;37.28;;;5.97;;
61003;SDS011;46889;37.310;13.582;2023-05-14T00:19:51;40.45;;;6.45;;
61003;SDS011;46889;37.310;13.582;2023-05-14T00:22:17;37.20;;;5.68;;
61003;SDS011;46889;37.310;13.582;2023-05-14T00:24:43;31.75;;;6.15;;
61003;SDS011;46889;37.310;13.582;2023-05-14T00:27:09;52.00;;;7.43;;
61003;SDS011;46889;37.310;13.582;2023-05-14T00:29:35;33.45;;;5.10;;
61003;SDS011;46889;37.310;13.582;2023-05-14T00:32:02;34.88;;;6.85;;
61003;SDS011;46889;37.310;13.582;2023-05-14T00:34:28;22.75;;;4.93;;
61003;SDS011;46889;37.310;13.582;2023-05-14T00:36:54;32.92;;;5.88;;
61003;SDS011;46889;37.310;13.582;2023-05-14T00:39:20;30.35;;;5.50;;
61003;SDS011;46889;37.310;13.582;2023-05-14T00:41:46;34.90;;;5.82;;
61003;SDS011;46889;37.310;13.582;2023-05-14T00:44:12;37.30;;;6.18;;
61003;SDS011;46889;37.310;13.582;2023-05-14T00:46:39;34.55;;;5.45;;
61003;SDS011;46889;37.310;13.582;2023-05-14T00:49:05;42.90;;;6.20;;
61003;SDS011;46889;37.310;13.582;2023-05-14T00:51:31;40.22;;;6.32;;
61003;SDS011;46889;37.310;13.582;2023-05-14T00:56:24;46.63;;;6.57;;
61003;SDS011;46889;37.310;13.582;2023-05-14T00:58:51;42.47;;;6.00;;
61003;SDS011;46889;37.310;13.582;2023-05-14T01:01:17;31.27;;;5.85;;
61003;SDS011;46889;37.310;13.582;2023-05-14T01:03:44;35.97;;;5.68;;
61003;SDS011;46889;37.310;13.582;2023-05-14T01:14:13;38.90;;;6.15;;
61003;SDS011;46889;37.310;13.582;2023-05-14T01:19:09;32.50;;;5.63;;
61003;SDS011;46889;37.310;13.582;2023-05-14T01:22:06;41.22;;;5.32;;
61003;SDS011;46889;37.310;13.582;2023-05-14T01:24:32;37.53;;;5.57;;
61003;SDS011;46889;37.310;13.582;2023-05-14T01:27:20;40.17;;;6.13;;
61003;SDS011;46889;37.310;13.582;2023-05-14T01:32:53;37.83;;;6.07;;
61003;SDS011;46889;37.310;13.582;2023-05-14T01:35:24;43.28;;;6.50;;
61003;SDS011;46889;37.310;13.582;2023-05-14T01:37:55;30.70;;;5.28;;
61003;SDS011;46889;37.310;13.582;2023-05-14T01:40:25;35.85;;;5.72;;
61003;SDS011;46889;37.310;13.582;2023-05-14T01:42:52;34.67;;;5.70;;
61003;SDS011;46889;37.310;13.582;2023-05-14T01:45:19;34.15;;;5.93;;
61003;SDS011;46889;37.310;13.582;2023-05-14T01:50:12;31.08;;;5.35;;
61003;SDS011;46889;37.310;13.582;2023-05-14T01:52:38;48.53;;;6.00;;
61003;SDS011;46889;37.310;13.582;2023-05-14T01:57:31;28.70;;;5.20;;
61003;SDS011;46889;37.310;13.582;2023-05-14T01:59:57;33.88;;;6.32;;
61003;SDS011;46889;37.310;13.582;2023-05-14T02:02:23;30.75;;;5.15;;
61003;SDS011;46889;37.310;13.582;2023-05-14T02:04:50;45.00;;;6.38;;
61003;SDS011;46889;37.310;13.582;2023-05-14T02:07:17;39.70;;;5.38;;
61003;SDS011;46889;37.310;13.582;2023-05-14T02:09:43;29.20;;;6.25;;
61003;SDS011;46889;37.310;13.582;2023-05-14T02:12:09;36.40;;;6.97;;
61003;SDS011;46889;37.310;13.582;2023-05-14T02:14:38;32.67;;;4.97;;
61003;SDS011;46889;37.310;13.582;2023-05-14T02:17:04;30.67;;;5.70;;
61003;SDS011;46889;37.310;13.582;2023-05-14T02:19:30;36.63;;;6.20;;
61003;SDS011;46889;37.310;13.582;2023-05-14T02:21:57;28.85;;;5.03;;
61003;SDS011;46889;37.310;13.582;2023-05-14T02:24:25;39.97;;;6.55;;
61003;SDS011;46889;37.310;13.582;2023-05-14T02:26:51;37.33;;;5.90;;
61003;SDS011;46889;37.310;13.582;2023-05-14T02:29:17;38.70;;;5.75;;
61003;SDS011;46889;37.310;13.582;2023-05-14T02:31:43;35.42;;;6.20;;
61003;SDS011;46889;37.310;13.582;2023-05-14T02:34:09;33.55;;;5.43;;
61003;SDS011;46889;37.310;13.582;2023-05-14T02:36:35;30.95;;;5.35;;
61003;SDS011;46889;37.310;13.582;2023-05-14T02:39:01;30.15;;;5.90;;
61003;SDS011;46889;37.310;13.582;2023-05-14T02:41:28;44.47;;;6.13;;
61003;SDS011;46889;37.310;13.582;2023-05-14T02:43:55;42.08;;;5.78;;
61003;SDS011;46889;37.310;13.582;2023-05-14T02:46:21;38.13;;;5.70;;
61003;SDS011;46889;37.310;13.582;2023-05-14T02:48:47;28.88;;;6.35;;
61003;SDS011;46889;37.310;13.582;2023-05-14T02:51:13;41.08;;;5.63;;
61003;SDS011;46889;37.310;13.582;2023-05-14T02:53:40;37.03;;;6.53;;
61003;SDS011;46889;37.310;13.582;2023-05-14T02:56:06;29.65;;;5.10;;
61003;SDS011;46889;37.310;13.582;2023-05-14T02:58:32;42.20;;;6.80;;
61003;SDS011;46889;37.310;13.582;2023-05-14T03:00:58;45.58;;;7.50;;
61003;SDS011;46889;37.310;13.582;2023-05-14T03:03:24;41.17;;;6.40;;
61003;SDS011;46889;37.310;13.582;2023-05-14T03:05:51;33.78;;;6.10;;
61003;SDS011;46889;37.310;13.582;2023-05-14T03:08:17;26.48;;;5.43;;
61003;SDS011;46889;37.310;13.582;2023-05-14T03:10:43;40.42;;;6.25;;
61003;SDS011;46889;37.310;13.582;2023-05-14T03:13:09;51.97;;;6.38;;
61003;SDS011;46889;37.310;13.582;2023-05-14T03:15:35;36.05;;;6.88;;
61003;SDS011;46889;37.310;13.582;2023-05-14T03:18:01;38.00;;;6.15;;
61003;SDS011;46889;37.310;13.582;2023-05-14T03:20:27;35.25;;;5.50;;
61003;SDS011;46889;37.310;13.582;2023-05-14T03:22:53;27.08;;;4.95;;
61003;SDS011;46889;37.310;13.582;2023-05-14T03:25:21;32.25;;;5.88;;
61003;SDS011;46889;37.310;13.582;2023-05-14T03:27:47;37.08;;;6.35;;
61003;SDS011;46889;37.310;13.582;2023-05-14T03:30:13;38.00;;;6.68;;
61003;SDS011;46889;37.310;13.582;2023-05-14T03:32:39;39.15;;;5.60;;
61003;SDS011;46889;37.310;13.582;2023-05-14T03:35:07;31.70;;;5.45;;
61003;SDS011;46889;37.310;13.582;2023-05-14T03:37:33;37.78;;;6.05;;
61003;SDS011;46889;37.310;13.582;2023-05-14T03:39:59;26.42;;;5.22;;
61003;SDS011;46889;37.310;13.582;2023-05-14T03:42:25;31.92;;;5.30;;
61003;SDS011;46889;37.310;13.582;2023-05-14T03:44:51;28.95;;;5.28;;
61003;SDS011;46889;37.310;13.582;2023-05-14T03:47:17;31.35;;;5.63;;
61003;SDS011;46889;37.310;13.582;2023-05-14T03:49:43;40.08;;;6.13;;
61003;SDS011;46889;37.310;13.582;2023-05-14T03:52:09;34.90;;;6.13;;
61003;SDS011;46889;37.310;13.582;2023-05-14T03:54:35;33.38;;;5.50;;
61003;SDS011;46889;37.310;13.582;2023-05-14T03:59:29;38.28;;;6.35;;
61003;SDS011;46889;37.310;13.582;2023-05-14T04:01:55;30.10;;;6.38;;
61003;SDS011;46889;37.310;13.582;2023-05-14T04:04:22;35.97;;;5.40;;
61003;SDS011;46889;37.310;13.582;2023-05-14T04:06:48;37.70;;;6.35;;
61003;SDS011;46889;37.310;13.582;2023-05-14T04:09:14;37.80;;;6.38;;
61003;SDS011;46889;37.310;13.582;2023-05-14T04:11:40;34.50;;;6.22;;
61003;SDS011;46889;37.310;13.582;2023-05-14T04:14:07;32.42;;;6.07;;
61003;SDS011;46889;37.310;13.582;2023-05-14T04:16:33;44.38;;;7.40;;
61003;SDS011;46889;37.310;13.582;2023-05-14T04:19:00;35.60;;;5.72;;
61003;SDS011;46889;37.310;13.582;2023-05-14T04:21:29;41.50;;;6.43;;
61003;SDS011;46889;37.310;13.582;2023-05-14T04:23:56;38.50;;;5.53;;
61003;SDS011;46889;37.310;13.582;2023-05-14T04:26:22;33.47;;;6.93;;
61003;SDS011;46889;37.310;13.582;2023-05-14T04:28:48;45.00;;;6.45;;
61003;SDS011;46889;37.310;13.582;2023-05-14T04:31:14;38.95;;;6.55;;
61003;SDS011;46889;37.310;13.582;2023-05-14T04:33:40;39.65;;;6.93;;
61003;SDS011;46889;37.310;13.582;2023-05-14T04:36:06;48.30;;;6.70;;
61003;SDS011;46889;37.310;13.582;2023-05-14T04:38:33;40.90;;;7.25;;
61003;SDS011;46889;37.310;13.582;2023-05-14T04:40:59;44.60;;;6.30;;
61003;SDS011;46889;37.310;13.582;2023-05-14T04:43:25;33.28;;;5.80;;
61003;SDS011;46889;37.310;13.582;2023-05-14T04:45:51;45.22;;;6.82;;
61003;SDS011;46889;37.310;13.582;2023-05-14T04:48:17;46.92;;;6.32;;
61003;SDS011;46889;37.310;13.582;2023-05-14T04:50:44;39.00;;;6.18;;
61003;SDS011;46889;37.310;13.582;2023-05-14T04:53:10;50.70;;;7.40;;
61003;SDS011;46889;37.310;13.582;2023-05-14T04:55:36;42.05;;;7.32;;
61003;SDS011;46889;37.310;13.582;2023-05-14T04:58:02;54.85;;;8.80;;
61003;SDS011;46889;37.310;13.582;2023-05-14T05:00:28;57.90;;;8.05;;
61003;SDS011;46889;37.310;13.582;2023-05-14T05:02:54;80.57;;;8.90;;
61003;SDS011;46889;37.310;13.582;2023-05-14T05:05:21;61.03;;;8.43;;
61003;SDS011;46889;37.310;13.582;2023-05-14T05:07:47;55.22;;;8.55;;
61003;SDS011;46889;37.310;13.582;2023-05-14T05:10:13;48.13;;;8.43;;
61003;SDS011;46889;37.310;13.582;2023-05-14T05:12:39;69.32;;;9.00;;
61003;SDS011;46889;37.310;13.582;2023-05-14T05:17:34;41.47;;;6.45;;
61003;SDS011;46889;37.310;13.582;2023-05-14T05:20:01;56.70;;;8.02;;
61003;SDS011;46889;37.310;13.582;2023-05-14T05:22:29;47.83;;;7.32;;
61003;SDS011;46889;37.310;13.582;2023-05-14T05:24:55;54.92;;;8.30;;
61003;SDS011;46889;37.310;13.582;2023-05-14T05:27:21;47.47;;;8.10;;
61003;SDS011;46889;37.310;13.582;2023-05-14T05:29:47;37.33;;;6.75;;
61003;SDS011;46889;37.310;13.582;2023-05-14T05:32:13;41.80;;;6.13;;
61003;SDS011;46889;37.310;13.582;2023-05-14T05:34:39;46.30;;;6.85;;
61003;SDS011;46889;37.310;13.582;2023-05-14T05:37:18;55.17;;;7.65;;
61003;SDS011;46889;37.310;13.582;2023-05-14T05:39:44;35.83;;;6.50;;
61003;SDS011;46889;37.310;13.582;2023-05-14T05:42:12;39.67;;;6.68;;
61003;SDS011;46889;37.310;13.582;2023-05-14T05:44:38;41.92;;;7.50;;
61003;SDS011;46889;37.310;13.582;2023-05-14T05:47:04;39.88;;;6.32;;
61003;SDS011;46889;37.310;13.582;2023-05-14T05:49:31;45.08;;;6.97;;
61003;SDS011;46889;37.310;13.582;2023-05-14T05:51:57;44.50;;;6.25;;
61003;SDS011;46889;37.310;13.582;2023-05-14T05:54:23;49.30;;;6.60;;
61003;SDS011;46889;37.310;13.582;2023-05-14T05:56:50;53.13;;;6.85;;
61003;SDS011;46889;37.310;13.582;2023-05-14T05:59:16;45.67;;;6.30;;
61003;SDS011;46889;37.310;13.582;2023-05-14T06:01:42;50.47;;;7.18;;
61003;SDS011;46889;37.310;13.582;2023-05-14T06:04:08;42.67;;;8.05;;
61003;SDS011;46889;37.310;13.582;2023-05-14T06:06:34;60.72;;;7.57;;
61003;SDS011;46889;37.310;13.582;2023-05-14T06:09:00;50.72;;;7.75;;
61003;SDS011;46889;37.310;13.582;2023-05-14T06:11:26;61.80;;;9.63;;
61003;SDS011;46889;37.310;13.582;2023-05-14T06:13:53;51.25;;;7.50;;
61003;SDS011;46889;37.310;13.582;2023-05-14T06:16:19;57.30;;;7.65;;
61003;SDS011;46889;37.310;13.582;2023-05-14T06:18:45;71.47;;;9.40;;
61003;SDS011;46889;37.310;13.582;2023-05-14T06:21:11;57.72;;;8.18;;
61003;SDS011;46889;37.310;13.582;2023-05-14T06:23:37;61.88;;;7.90;;
61003;SDS011;46889;37.310;13.582;2023-05-14T06:26:03;58.15;;;8.00;;
61003;SDS011;46889;37.310;13.582;2023-05-14T06:28:29;75.53;;;8.57;;
61003;SDS011;46889;37.310;13.582;2023-05-14T06:30:55;73.68;;;10.50;;
61003;SDS011;46889;37.310;13.582;2023-05-14T06:33:21;74.95;;;10.23;;
61003;SDS011;46889;37.310;13.582;2023-05-14T06:35:58;84.22;;;10.95;;
61003;SDS011;46889;37.310;13.582;2023-05-14T06:38:25;58.63;;;8.32;;
61003;SDS011;46889;37.310;13.582;2023-05-14T06:40:51;58.35;;;8.90;;
61003;SDS011;46889;37.310;13.582;2023-05-14T06:43:17;79.15;;;10.20;;
61003;SDS011;46889;37.310;13.582;2023-05-14T06:45:43;51.67;;;8.05;;
61003;SDS011;46889;37.310;13.582;2023-05-14T06:48:13;66.07;;;8.50;;
61003;SDS011;46889;37.310;13.582;2023-05-14T06:50:40;63.63;;;8.63;;
61003;SDS011;46889;37.310;13.582;2023-05-14T06:53:06;65.20;;;9.07;;
61003;SDS011;46889;37.310;13.582;2023-05-14T06:55:32;67.40;;;8.25;;
61003;SDS011;46889;37.310;13.582;2023-05-14T06:57:58;51.75;;;8.43;;
61003;SDS011;46889;37.310;13.582;2023-05-14T07:00:24;60.78;;;9.00;;
61003;SDS011;46889;37.310;13.582;2023-05-14T07:02:50;64.25;;;9.27;;
61003;SDS011;46889;37.310;13.582;2023-05-14T07:05:16;75.75;;;9.90;;
61003;SDS011;46889;37.310;13.582;2023-05-14T07:07:43;59.70;;;9.27;;
61003;SDS011;46889;37.310;13.582;2023-05-14T07:10:09;82.63;;;9.98;;
61003;SDS011;46889;37.310;13.582;2023-05-14T07:12:35;54.08;;;8.80;;
61003;SDS011;46889;37.310;13.582;2023-05-14T07:15:01;57.55;;;7.78;;
61003;SDS011;46889;37.310;13.582;2023-05-14T07:17:27;59.13;;;8.63;;
61003;SDS011;46889;37.310;13.582;2023-05-14T07:19:53;49.40;;;6.80;;
61003;SDS011;46889;37.310;13.582;2023-05-14T07:22:20;64.55;;;8.25;;
61003;SDS011;46889;37.310;13.582;2023-05-14T07:24:46;55.80;;;7.63;;
61003;SDS011;46889;37.310;13.582;2023-05-14T07:29:41;50.05;;;8.02;;
61003;SDS011;46889;37.310;13.582;2023-05-14T07:32:07;58.92;;;7.78;;
61003;SDS011;46889;37.310;13.582;2023-05-14T07:34:33;55.70;;;9.07;;
61003;SDS011;46889;37.310;13.582;2023-05-14T07:36:59;46.35;;;6.85;;
61003;SDS011;46889;37.310;13.582;2023-05-14T07:39:26;63.00;;;7.55;;
61003;SDS011;46889;37.310;13.582;2023-05-14T07:41:52;47.55;;;7.82;;
61003;SDS011;46889;37.310;13.582;2023-05-14T07:49:11;37.30;;;7.03;;
61003;SDS011;46889;37.310;13.582;2023-05-14T07:51:37;46.28;;;7.30;;
61003;SDS011;46889;37.310;13.582;2023-05-14T07:54:03;43.95;;;6.38;;
61003;SDS011;46889;37.310;13.582;2023-05-14T07:56:29;33.38;;;5.47;;
61003;SDS011;46889;37.310;13.582;2023-05-14T07:58:58;53.60;;;7.15;;
61003;SDS011;46889;37.310;13.582;2023-05-14T08:01:24;42.22;;;6.20;;
61003;SDS011;46889;37.310;13.582;2023-05-14T08:03:51;32.13;;;6.05;;
61003;SDS011;46889;37.310;13.582;2023-05-14T08:06:17;40.88;;;6.80;;
61003;SDS011;46889;37.310;13.582;2023-05-14T08:08:45;45.80;;;7.07;;
61003;SDS011;46889;37.310;13.582;2023-05-14T08:11:11;46.40;;;5.93;;
61003;SDS011;46889;37.310;13.582;2023-05-14T08:13:37;53.55;;;7.80;;
61003;SDS011;46889;37.310;13.582;2023-05-14T08:16:03;46.00;;;7.97;;
61003;SDS011;46889;37.310;13.582;2023-05-14T08:18:32;47.90;;;7.40;;
61003;SDS011;46889;37.310;13.582;2023-05-14T08:20:58;49.55;;;6.63;;
61003;SDS011;46889;37.310;13.582;2023-05-14T08:23:25;46.55;;;7.60;;
61003;SDS011;46889;37.310;13.582;2023-05-14T08:25:51;52.40;;;8.00;;
61003;SDS011;46889;37.310;13.582;2023-05-14T08:28:17;67.95;;;8.82;;
61003;SDS011;46889;37.310;13.582;2023-05-14T08:30:43;60.58;;;9.38;;
61003;SDS011;46889;37.310;13.582;2023-05-14T08:33:10;67.80;;;10.15;;
61003;SDS011;46889;37.310;13.582;2023-05-14T08:35:36;79.75;;;10.57;;
61003;SDS011;46889;37.310;13.582;2023-05-14T08:38:02;58.85;;;9.27;;
61003;SDS011;46889;37.310;13.582;2023-05-14T08:40:28;64.43;;;10.27;;
61003;SDS011;46889;37.310;13.582;2023-05-14T08:42:55;63.95;;;9.60;;
61003;SDS011;46889;37.310;13.582;2023-05-14T08:45:28;79.32;;;10.07;;
61003;SDS011;46889;37.310;13.582;2023-05-14T08:47:58;65.35;;;10.48;;
61003;SDS011;46889;37.310;13.582;2023-05-14T08:50:32;65.32;;;8.73;;
61003;SDS011;46889;37.310;13.582;2023-05-14T08:53:00;79.22;;;11.05;;
61003;SDS011;46889;37.310;13.582;2023-05-14T08:55:26;60.25;;;9.32;;
61003;SDS011;46889;37.310;13.582;2023-05-14T08:57:53;68.30;;;9.70;;
61003;SDS011;46889;37.310;13.582;2023-05-14T09:00:20;64.10;;;10.02;;
61003;SDS011;46889;37.310;13.582;2023-05-14T09:02:47;89.47;;;10.63;;
61003;SDS011;46889;37.310;13.582;2023-05-14T09:05:14;78.55;;;9.75;;
61003;SDS011;46889;37.310;13.582;2023-05-14T09:07:43;69.70;;;10.55;;
61003;SDS011;46889;37.310;13.582;2023-05-14T09:12:35;89.85;;;9.95;;
61003;SDS011;46889;37.310;13.582;2023-05-14T09:15:01;74.90;;;11.07;;
61003;SDS011;46889;37.310;13.582;2023-05-14T09:17:28;79.90;;;10.52;;
61003;SDS011;46889;37.310;13.582;2023-05-14T09:19:54;84.13;;;11.80;;
61003;SDS011;46889;37.310;13.582;2023-05-14T09:22:21;69.32;;;10.80;;
61003;SDS011;46889;37.310;13.582;2023-05-14T09:25:00;66.80;;;10.63;;
61003;SDS011;46889;37.310;13.582;2023-05-14T09:27:28;72.40;;;11.48;;
61003;SDS011;46889;37.310;13.582;2023-05-14T09:30:00;72.47;;;11.77;;
61003;SDS011;46889;37.310;13.582;2023-05-14T09:32:38;64.00;;;9.93;;
61003;SDS011;46889;37.310;13.582;2023-05-14T09:35:08;66.00;;;10.48;;
61003;SDS011;46889;37.310;13.582;2023-05-14T09:37:42;78.38;;;10.63;;
61003;SDS011;46889;37.310;13.582;2023-05-14T09:40:10;75.60;;;10.77;;
61003;SDS011;46889;37.310;13.582;2023-05-14T09:42:37;78.38;;;11.73;;
61003;SDS011;46889;37.310;13.582;2023-05-14T09:45:05;66.15;;;11.85;;
61003;SDS011;46889;37.310;13.582;2023-05-14T09:47:32;83.40;;;10.77;;
61003;SDS011;46889;37.310;13.582;2023-05-14T09:49:58;71.20;;;12.25;;
61003;SDS011;46889;37.310;13.582;2023-05-14T09:52:24;69.65;;;11.73;;
61003;SDS011;46889;37.310;13.582;2023-05-14T09:54:51;63.72;;;11.57;;
61003;SDS011;46889;37.310;13.582;2023-05-14T09:57:18;71.05;;;11.63;;
61003;SDS011;46889;37.310;13.582;2023-05-14T09:59:44;64.03;;;10.68;;
61003;SDS011;46889;37.310;13.582;2023-05-14T10:02:14;65.90;;;10.48;;
61003;SDS011;46889;37.310;13.582;2023-05-14T10:04:47;75.40;;;11.02;;
61003;SDS011;46889;37.310;13.582;2023-05-14T10:07:26;77.88;;;11.27;;
61003;SDS011;46889;37.310;13.582;2023-05-14T10:09:58;59.28;;;11.55;;
61003;SDS011;46889;37.310;13.582;2023-05-14T10:12:31;295.42;;;27.70;;
61003;SDS011;46889;37.310;13.582;2023-05-14T10:15:00;96.03;;;12.65;;
61003;SDS011;46889;37.310;13.582;2023-05-14T10:17:31;76.63;;;10.82;;
61003;SDS011;46889;37.310;13.582;2023-05-14T10:20:02;65.18;;;10.50;;
61003;SDS011;46889;37.310;13.582;2023-05-14T10:22:33;68.60;;;10.93;;
61003;SDS011;46889;37.310;13.582;2023-05-14T10:24:59;61.72;;;10.65;;
61003;SDS011;46889;37.310;13.582;2023-05-14T10:27:27;57.55;;;9.50;;
61003;SDS011;46889;37.310;13.582;2023-05-14T10:29:54;64.63;;;10.50;;
61003;SDS011;46889;37.310;13.582;2023-05-14T10:32:21;65.18;;;9.90;;
61003;SDS011;46889;37.310;13.582;2023-05-14T10:34:50;64.05;;;9.52;;
61003;SDS011;46889;37.310;13.582;2023-05-14T10:37:35;61.13;;;10.10;;
61003;SDS011;46889;37.310;13.582;2023-05-14T10:40:01;68.68;;;11.35;;
61003;SDS011;46889;37.310;13.582;2023-05-14T10:42:36;69.32;;;9.85;;
61003;SDS011;46889;37.310;13.582;2023-05-14T10:45:10;75.32;;;9.90;;
61003;SDS011;46889;37.310;13.582;2023-05-14T10:47:38;65.50;;;9.18;;
61003;SDS011;46889;37.310;13.582;2023-05-14T10:50:10;62.40;;;9.85;;
61003;SDS011;46889;37.310;13.582;2023-05-14T10:52:41;56.70;;;8.93;;
61003;SDS011;46889;37.310;13.582;2023-05-14T10:55:12;63.10;;;9.23;;
61003;SDS011;46889;37.310;13.582;2023-05-14T10:57:41;61.03;;;9.55;;
61003;SDS011;46889;37.310;13.582;2023-05-14T11:00:11;67.03;;;9.30;;
61003;SDS011;46889;37.310;13.582;2023-05-14T11:02:39;64.40;;;9.88;;
61003;SDS011;46889;37.310;13.582;2023-05-14T11:05:10;65.63;;;10.45;;
61003;SDS011;46889;37.310;13.582;2023-05-14T11:07:43;60.85;;;9.25;;
61003;SDS011;46889;37.310;13.582;2023-05-14T11:12:39;76.38;;;9.25;;
61003;SDS011;46889;37.310;13.582;2023-05-14T11:15:09;60.45;;;8.73;;
61003;SDS011;46889;37.310;13.582;2023-05-14T11:17:37;50.53;;;8.13;;
61003;SDS011;46889;37.310;13.582;2023-05-14T11:20:05;49.65;;;9.00;;
61003;SDS011;46889;37.310;13.582;2023-05-14T11:22:33;52.33;;;8.68;;
61003;SDS011;46889;37.310;13.582;2023-05-14T11:25:00;61.88;;;9.57;;
61003;SDS011;46889;37.310;13.582;2023-05-14T11:27:26;56.33;;;9.52;;
61003;SDS011;46889;37.310;13.582;2023-05-14T11:30:00;63.53;;;9.75;;
61003;SDS011;46889;37.310;13.582;2023-05-14T11:32:26;60.35;;;9.13;;
61003;SDS011;46889;37.310;13.582;2023-05-14T11:34:52;60.83;;;9.45;;
61003;SDS011;46889;37.310;13.582;2023-05-14T11:37:18;65.07;;;9.85;;
61003;SDS011;46889;37.310;13.582;2023-05-14T11:39:54;55.05;;;9.45;;
61003;SDS011;46889;37.310;13.582;2023-05-14T11:42:22;55.78;;;8.50;;
61003;SDS011;46889;37.310;13.582;2023-05-14T11:44:50;64.43;;;10.02;;
61003;SDS011;46889;37.310;13.582;2023-05-14T11:47:18;57.63;;;8.35;;
61003;SDS011;46889;37.310;13.582;2023-05-14T11:49:46;54.80;;;9.18;;
61003;SDS011;46889;37.310;13.582;2023-05-14T11:52:13;53.60;;;8.32;;
61003;SDS011;46889;37.310;13.582;2023-05-14T11:54:41;60.28;;;9.27;;
61003;SDS011;46889;37.310;13.582;2023-05-14T11:59:39;55.67;;;8.13;;
61003;SDS011;46889;37.310;13.582;2023-05-14T12:02:15;71.78;;;9.23;;
61003;SDS011;46889;37.310;13.582;2023-05-14T12:04:43;55.28;;;7.57;;
61003;SDS011;46889;37.310;13.582;2023-05-14T12:07:14;53.90;;;8.57;;
61003;SDS011;46889;37.310;13.582;2023-05-14T12:09:41;51.40;;;8.43;;
61003;SDS011;46889;37.310;13.582;2023-05-14T12:12:19;44.67;;;8.20;;
61003;SDS011;46889;37.310;13.582;2023-05-14T12:14:46;52.90;;;8.18;;
61003;SDS011;46889;37.310;13.582;2023-05-14T12:17:29;51.05;;;7.00;;
61003;SDS011;46889;37.310;13.582;2023-05-14T12:19:58;52.58;;;7.97;;
61003;SDS011;46889;37.310;13.582;2023-05-14T12:22:26;55.97;;;8.30;;
61003;SDS011;46889;37.310;13.582;2023-05-14T12:24:58;50.08;;;7.00;;
61003;SDS011;46889;37.310;13.582;2023-05-14T12:27:25;58.20;;;8.18;;
61003;SDS011;46889;37.310;13.582;2023-05-14T12:29:59;52.58;;;7.53;;
61003;SDS011;46889;37.310;13.582;2023-05-14T12:32:27;54.55;;;7.90;;
61003;SDS011;46889;37.310;13.582;2023-05-14T12:34:56;54.58;;;8.60;;
61003;SDS011;46889;37.310;13.582;2023-05-14T12:37:23;60.92;;;8.10;;
61003;SDS011;46889;37.310;13.582;2023-05-14T12:39:49;53.40;;;8.82;;
61003;SDS011;46889;37.310;13.582;2023-05-14T12:42:15;56.80;;;7.57;;
61003;SDS011;46889;37.310;13.582;2023-05-14T12:44:41;56.70;;;8.27;;
61003;SDS011;46889;37.310;13.582;2023-05-14T12:47:07;40.92;;;7.90;;
61003;SDS011;46889;37.310;13.582;2023-05-14T12:49:33;52.47;;;8.13;;
61003;SDS011;46889;37.310;13.582;2023-05-14T12:52:00;49.78;;;8.68;;
61003;SDS011;46889;37.310;13.582;2023-05-14T12:54:26;53.90;;;8.30;;
61003;SDS011;46889;37.310;13.582;2023-05-14T12:56:52;43.63;;;8.35;;
61003;SDS011;46889;37.310;13.582;2023-05-14T12:59:18;51.83;;;8.52;;
61003;SDS011;46889;37.310;13.582;2023-05-14T13:01:45;50.58;;;7.50;;
61003;SDS011;46889;37.310;13.582;2023-05-14T13:04:11;46.40;;;7.60;;
61003;SDS011;46889;37.310;13.582;2023-05-14T13:06:38;52.50;;;7.63;;
61003;SDS011;46889;37.310;13.582;2023-05-14T13:09:05;47.28;;;7.78;;
61003;SDS011;46889;37.310;13.582;2023-05-14T13:11:31;51.03;;;7.50;;
61003;SDS011;46889;37.310;13.582;2023-05-14T13:13:58;46.67;;;7.40;;
61003;SDS011;46889;37.310;13.582;2023-05-14T13:16:25;46.22;;;7.25;;
61003;SDS011;46889;37.310;13.582;2023-05-14T13:18:53;45.33;;;6.88;;
61003;SDS011;46889;37.310;13.582;2023-05-14T13:21:20;45.92;;;7.43;;
61003;SDS011;46889;37.310;13.582;2023-05-14T13:26:12;45.08;;;7.60;;
61003;SDS011;46889;37.310;13.582;2023-05-14T13:28:38;49.33;;;8.30;;
61003;SDS011;46889;37.310;13.582;2023-05-14T13:31:06;50.13;;;7.97;;
61003;SDS011;46889;37.310;13.582;2023-05-14T13:33:36;38.47;;;7.57;;
61003;SDS011;46889;37.310;13.582;2023-05-14T13:36:05;52.80;;;10.02;;
61003;SDS011;46889;37.310;13.582;2023-05-14T13:38:32;53.10;;;8.40;;
61003;SDS011;46889;37.310;13.582;2023-05-14T13:43:30;56.92;;;8.85;;
61003;SDS011;46889;37.310;13.582;2023-05-14T13:45:56;70.32;;;11.25;;
61003;SDS011;46889;37.310;13.582;2023-05-14T13:48:23;55.97;;;11.60;;
61003;SDS011;46889;37.310;13.582;2023-05-14T13:50:50;57.97;;;12.20;;
61003;SDS011;46889;37.310;13.582;2023-05-14T13:53:19;61.58;;;9.95;;
61003;SDS011;46889;37.310;13.582;2023-05-14T13:55:47;46.35;;;8.75;;
61003;SDS011;46889;37.310;13.582;2023-05-14T13:58:13;58.28;;;7.60;;
61003;SDS011;46889;37.310;13.582;2023-05-14T14:00:40;43.35;;;7.18;;
61003;SDS011;46889;37.310;13.582;2023-05-14T14:03:06;41.50;;;6.80;;
61003;SDS011;46889;37.310;13.582;2023-05-14T14:05:36;55.92;;;8.02;;
61003;SDS011;46889;37.310;13.582;2023-05-14T14:08:02;45.72;;;7.28;;
61003;SDS011;46889;37.310;13.582;2023-05-14T14:10:28;48.30;;;7.10;;
61003;SDS011;46889;37.310;13.582;2023-05-14T14:12:54;56.35;;;7.90;;
61003;SDS011;46889;37.310;13.582;2023-05-14T14:15:21;43.20;;;7.15;;
61003;SDS011;46889;37.310;13.582;2023-05-14T14:17:47;46.80;;;7.65;;
61003;SDS011;46889;37.310;13.582;2023-05-14T14:20:13;48.25;;;7.47;;
61003;SDS011;46889;37.310;13.582;2023-05-14T14:22:39;40.53;;;6.57;;
61003;SDS011;46889;37.310;13.582;2023-05-14T14:25:07;48.35;;;7.32;;
61003;SDS011;46889;37.310;13.582;2023-05-14T14:27:34;47.80;;;6.80;;
61003;SDS011;46889;37.310;13.582;2023-05-14T14:30:04;40.85;;;7.18;;
61003;SDS011;46889;37.310;13.582;2023-05-14T14:32:40;43.78;;;6.32;;
61003;SDS011;46889;37.310;13.582;2023-05-14T14:35:10;50.03;;;6.63;;
61003;SDS011;46889;37.310;13.582;2023-05-14T14:37:38;41.80;;;6.68;;
61003;SDS011;46889;37.310;13.582;2023-05-14T14:40:06;49.17;;;6.57;;
61003;SDS011;46889;37.310;13.582;2023-05-14T14:42:34;38.53;;;6.60;;
61003;SDS011;46889;37.310;13.582;2023-05-14T14:45:02;44.13;;;6.78;;
61003;SDS011;46889;37.310;13.582;2023-05-14T14:47:29;37.08;;;7.28;;
61003;SDS011;46889;37.310;13.582;2023-05-14T14:49:55;42.65;;;6.93;;
61003;SDS011;46889;37.310;13.582;2023-05-14T14:52:22;43.42;;;7.05;;
61003;SDS011;46889;37.310;13.582;2023-05-14T14:54:51;43.75;;;7.10;;
61003;SDS011;46889;37.310;13.582;2023-05-14T14:57:17;46.15;;;7.30;;
61003;SDS011;46889;37.310;13.582;2023-05-14T14:59:44;48.78;;;7.13;;
61003;SDS011;46889;37.310;13.582;2023-05-14T15:02:10;41.08;;;7.07;;
61003;SDS011;46889;37.310;13.582;2023-05-14T15:04:37;49.90;;;6.82;;